sensor_id;sensor_type;location;lat;lon;timestamp;pressure;altitude;pressure_sealevel;temperature;humidity
55990;BME280;41875;55.806;38.082;2024-03-23T00:52:39;98377.00;;;1.52;75.20
55990;BME280;41875;55.806;38.082;2024-03-23T00:55:41;98369.31;;;1.51;75.05
55990;BME280;41875;55.806;38.082;2024-03-23T00:58:43;98373.88;;;1.59;75.79
55990;BME280;41875;55.806;38.082;2024-03-23T01:01:46;98359.78;;;1.40;75.63
55990;BME280;41875;55.806;38.082;2024-03-23T01:04:49;98360.69;;;1.60;75.69
55990;BME280;41875;55.806;38.082;2024-03-23T01:07:57;98356.56;;;1.58;76.23
55990;BME280;41875;55.806;38.082;2024-03-23T01:11:11;98353.41;;;1.64;76.36
55990;BME280;41875;55.806;38.082;2024-03-23T01:14:15;98347.94;;;1.67;76.02
55990;BME280;41875;55.806;38.082;2024-03-23T01:17:23;98347.91;;;1.98;75.39
55990;BME280;41875;55.806;38.082;2024-03-23T01:20:25;98339.44;;;1.75;76.43
55990;BME280;41875;55.806;38.082;2024-03-23T01:23:28;98338.19;;;1.69;76.54
55990;BME280;41875;55.806;38.082;2024-03-23T01:26:31;98336.84;;;1.75;77.33
55990;BME280;41875;55.806;38.082;2024-03-23T01:29:36;98329.22;;;1.62;78.36
55990;BME280;41875;55.806;38.082;2024-03-23T01:32:44;98322.59;;;1.89;77.84
55990;BME280;41875;55.806;38.082;2024-03-23T01:36:09;98321.47;;;1.81;78.47
55990;BME280;41875;55.806;38.082;2024-03-23T01:39:58;98317.91;;;1.82;79.67
55990;BME280;41875;55.806;38.082;2024-03-23T01:43:07;98314.63;;;1.90;81.34
55990;BME280;41875;55.806;38.082;2024-03-23T01:46:26;98310.66;;;1.96;81.13
55990;BME280;41875;55.806;38.082;2024-03-23T01:49:29;98312.00;;;1.90;81.97
55990;BME280;41875;55.806;38.082;2024-03-23T01:52:32;98303.78;;;1.54;83.69
55990;BME280;41875;55.806;38.082;2024-03-23T01:55:34;98299.59;;;1.73;83.19
55990;BME280;41875;55.806;38.082;2024-03-23T01:58:40;98297.25;;;1.70;84.32
55990;BME280;41875;55.806;38.082;2024-03-23T02:01:41;98285.91;;;1.90;82.50
55990;BME280;41875;55.806;38.082;2024-03-23T02:04:46;98286.31;;;1.86;83.20
55990;BME280;41875;55.806;38.082;2024-03-23T02:07:49;98282.13;;;1.63;85.57
55990;BME280;41875;55.806;38.082;2024-03-23T02:10:52;98278.56;;;1.74;84.64
55990;BME280;41875;55.806;38.082;2024-03-23T02:13:54;98271.13;;;1.70;85.87
55990;BME280;41875;55.806;38.082;2024-03-23T02:16:56;98266.59;;;1.72;84.80
55990;BME280;41875;55.806;38.082;2024-03-23T02:20:00;98263.59;;;1.76;85.38
55990;BME280;41875;55.806;38.082;2024-03-23T02:23:18;98251.72;;;1.52;86.31
55990;BME280;41875;55.806;38.082;2024-03-23T02:26:23;98247.63;;;1.29;88.81
55990;BME280;41875;55.806;38.082;2024-03-23T02:29:25;98237.75;;;1.63;87.34
55990;BME280;41875;55.806;38.082;2024-03-23T02:32:34;98229.19;;;1.51;87.51
55990;BME280;41875;55.806;38.082;2024-03-23T02:35:38;98238.34;;;1.87;86.08
55990;BME280;41875;55.806;38.082;2024-03-23T02:38:42;98234.81;;;1.47;88.00
55990;BME280;41875;55.806;38.082;2024-03-23T02:41:44;98231.94;;;1.50;87.96
55990;BME280;41875;55.806;38.082;2024-03-23T02:44:47;98223.72;;;1.74;86.10
55990;BME280;41875;55.806;38.082;2024-03-23T02:47:49;98218.91;;;1.70;86.79
55990;BME280;41875;55.806;38.082;2024-03-23T02:50:55;98209.41;;;1.49;87.42
55990;BME280;41875;55.806;38.082;2024-03-23T02:54:00;98205.03;;;1.59;87.89
55990;BME280;41875;55.806;38.082;2024-03-23T02:57:22;98207.25;;;1.74;87.33
55990;BME280;41875;55.806;38.082;2024-03-23T03:00:59;98197.63;;;1.84;86.79
55990;BME280;41875;55.806;38.082;2024-03-23T03:04:06;98203.00;;;1.73;87.16
55990;BME280;41875;55.806;38.082;2024-03-23T03:07:12;98183.91;;;1.92;85.84
55990;BME280;41875;55.806;38.082;2024-03-23T03:10:16;98171.00;;;1.90;85.68
55990;BME280;41875;55.806;38.082;2024-03-23T03:13:18;98168.50;;;1.98;85.72
55990;BME280;41875;55.806;38.082;2024-03-23T03:16:22;98157.25;;;2.08;85.26
55990;BME280;41875;55.806;38.082;2024-03-23T03:19:26;98149.66;;;2.34;84.51
55990;BME280;41875;55.806;38.082;2024-03-23T03:22:28;98147.34;;;2.11;85.21
55990;BME280;41875;55.806;38.082;2024-03-23T03:25:35;98140.88;;;2.06;85.92
55990;BME280;41875;55.806;38.082;2024-03-23T03:28:37;98129.41;;;2.36;83.75
55990;BME280;41875;55.806;38.082;2024-03-23T03:31:40;98144.03;;;2.00;85.25
55990;BME280;41875;55.806;38.082;2024-03-23T03:34:43;98136.44;;;2.46;84.42
55990;BME280;41875;55.806;38.082;2024-03-23T03:37:45;98132.34;;;2.23;84.36
55990;BME280;41875;55.806;38.082;2024-03-23T03:40:49;98128.75;;;2.34;84.70
55990;BME280;41875;55.806;38.082;2024-03-23T03:43:53;98121.03;;;2.42;83.52
55990;BME280;41875;55.806;38.082;2024-03-23T03:47:03;98111.56;;;2.22;84.75
55990;BME280;41875;55.806;38.082;2024-03-23T03:50:07;98123.13;;;2.29;85.02
55990;BME280;41875;55.806;38.082;2024-03-23T03:53:09;98110.50;;;2.24;85.23
55990;BME280;41875;55.806;38.082;2024-03-23T03:56:12;98105.25;;;2.34;85.82
55990;BME280;41875;55.806;38.082;2024-03-23T03:59:18;98095.38;;;2.66;83.91
55990;BME280;41875;55.806;38.082;2024-03-23T04:02:23;98097.31;;;2.54;84.00
55990;BME280;41875;55.806;38.082;2024-03-23T04:05:33;98102.53;;;2.64;84.46
55990;BME280;41875;55.806;38.082;2024-03-23T04:08:34;98090.13;;;2.28;85.92
55990;BME280;41875;55.806;38.082;2024-03-23T04:11:39;98086.66;;;2.37;86.01
55990;BME280;41875;55.806;38.082;2024-03-23T04:14:40;98080.06;;;2.33;86.76
55990;BME280;41875;55.806;38.082;2024-03-23T04:17:43;98084.22;;;2.64;85.42
55990;BME280;41875;55.806;38.082;2024-03-23T04:20:44;98070.88;;;2.95;84.52
55990;BME280;41875;55.806;38.082;2024-03-23T04:23:47;98067.81;;;2.71;85.50
55990;BME280;41875;55.806;38.082;2024-03-23T04:26:51;98062.75;;;2.70;85.52
55990;BME280;41875;55.806;38.082;2024-03-23T04:29:54;98055.19;;;2.95;84.22
55990;BME280;41875;55.806;38.082;2024-03-23T04:32:55;98053.03;;;3.08;84.11
55990;BME280;41875;55.806;38.082;2024-03-23T04:35:59;98048.75;;;3.53;81.82
55990;BME280;41875;55.806;38.082;2024-03-23T04:39:04;98039.59;;;3.21;82.26
55990;BME280;41875;55.806;38.082;2024-03-23T04:42:14;98038.56;;;2.86;83.98
55990;BME280;41875;55.806;38.082;2024-03-23T04:45:17;98032.06;;;2.72;84.81
55990;BME280;41875;55.806;38.082;2024-03-23T04:48:20;98019.81;;;2.90;83.63
55990;BME280;41875;55.806;38.082;2024-03-23T04:51:23;98015.59;;;3.08;82.64
55990;BME280;41875;55.806;38.082;2024-03-23T04:54:28;98011.69;;;3.48;80.55
55990;BME280;41875;55.806;38.082;2024-03-23T04:57:32;98012.22;;;3.33;81.61
55990;BME280;41875;55.806;38.082;2024-03-23T05:00:34;98004.56;;;2.86;83.28
55990;BME280;41875;55.806;38.082;2024-03-23T05:03:36;98013.72;;;3.36;81.44
55990;BME280;41875;55.806;38.082;2024-03-23T05:06:39;98012.31;;;3.24;81.35
55990;BME280;41875;55.806;38.082;2024-03-23T05:09:40;98011.91;;;3.55;80.77
55990;BME280;41875;55.806;38.082;2024-03-23T05:12:44;97996.22;;;3.55;80.25
55990;BME280;41875;55.806;38.082;2024-03-23T05:15:54;98005.34;;;3.14;82.76
55990;BME280;41875;55.806;38.082;2024-03-23T05:18:57;98007.78;;;3.70;80.52
55990;BME280;41875;55.806;38.082;2024-03-23T05:22:00;98000.50;;;3.82;80.03
55990;BME280;41875;55.806;38.082;2024-03-23T05:25:03;97995.19;;;3.47;81.18
55990;BME280;41875;55.806;38.082;2024-03-23T05:28:07;98001.47;;;3.37;82.20
55990;BME280;41875;55.806;38.082;2024-03-23T05:31:10;97995.16;;;3.65;80.89
55990;BME280;41875;55.806;38.082;2024-03-23T05:34:12;97992.66;;;3.82;80.61
55990;BME280;41875;55.806;38.082;2024-03-23T05:37:17;97996.88;;;3.57;81.99
55990;BME280;41875;55.806;38.082;2024-03-23T05:40:18;97988.94;;;3.48;83.51
55990;BME280;41875;55.806;38.082;2024-03-23T05:43:22;97985.75;;;3.81;82.34
55990;BME280;41875;55.806;38.082;2024-03-23T05:46:25;97979.66;;;3.72;82.71
55990;BME280;41875;55.806;38.082;2024-03-23T05:49:27;97976.69;;;3.49;84.50
55990;BME280;41875;55.806;38.082;2024-03-23T05:52:30;97971.38;;;3.59;84.41
55990;BME280;41875;55.806;38.082;2024-03-23T05:55:32;97969.34;;;3.53;85.52
55990;BME280;41875;55.806;38.082;2024-03-23T05:58:36;97962.66;;;3.32;86.34
55990;BME280;41875;55.806;38.082;2024-03-23T06:01:39;97959.09;;;3.59;86.57
55990;BME280;41875;55.806;38.082;2024-03-23T06:04:41;97955.00;;;3.57;86.50
55990;BME280;41875;55.806;38.082;2024-03-23T06:07:43;97949.16;;;3.45;89.09
55990;BME280;41875;55.806;38.082;2024-03-23T06:10:45;97948.31;;;3.62;87.58
55990;BME280;41875;55.806;38.082;2024-03-23T06:13:50;97938.06;;;3.25;89.84
55990;BME280;41875;55.806;38.082;2024-03-23T06:16:51;97934.06;;;3.83;88.18
55990;BME280;41875;55.806;38.082;2024-03-23T06:19:54;97938.19;;;3.94;87.57
55990;BME280;41875;55.806;38.082;2024-03-23T06:22:56;97940.34;;;3.99;87.69
55990;BME280;41875;55.806;38.082;2024-03-23T06:25:58;97938.03;;;3.95;87.67
55990;BME280;41875;55.806;38.082;2024-03-23T06:29:02;97928.16;;;3.81;89.83
55990;BME280;41875;55.806;38.082;2024-03-23T06:32:06;97923.31;;;3.94;89.64
55990;BME280;41875;55.806;38.082;2024-03-23T06:35:08;97926.94;;;3.49;90.71
55990;BME280;41875;55.806;38.082;2024-03-23T06:38:11;97914.66;;;3.68;90.72
55990;BME280;41875;55.806;38.082;2024-03-23T06:41:12;97919.31;;;3.56;90.79
55990;BME280;41875;55.806;38.082;2024-03-23T06:44:19;97912.25;;;3.56;92.05
55990;BME280;41875;55.806;38.082;2024-03-23T06:47:21;97908.25;;;3.96;89.84
55990;BME280;41875;55.806;38.082;2024-03-23T06:50:26;97901.38;;;3.69;91.17
55990;BME280;41875;55.806;38.082;2024-03-23T06:53:31;97914.94;;;3.64;91.99
55990;BME280;41875;55.806;38.082;2024-03-23T06:56:34;97909.44;;;3.76;90.92
55990;BME280;41875;55.806;38.082;2024-03-23T06:59:38;97905.81;;;3.69;91.46
55990;BME280;41875;55.806;38.082;2024-03-23T07:02:39;97893.28;;;4.23;89.62
55990;BME280;41875;55.806;38.082;2024-03-23T07:05:45;97895.97;;;3.71;91.31
55990;BME280;41875;55.806;38.082;2024-03-23T07:08:47;97885.34;;;3.99;90.97
55990;BME280;41875;55.806;38.082;2024-03-23T07:11:50;97889.81;;;3.80;91.04
55990;BME280;41875;55.806;38.082;2024-03-23T07:14:56;97877.59;;;3.89;91.41
55990;BME280;41875;55.806;38.082;2024-03-23T07:18:04;97884.66;;;3.62;92.70
55990;BME280;41875;55.806;38.082;2024-03-23T07:21:06;97874.22;;;4.05;91.36
55990;BME280;41875;55.806;38.082;2024-03-23T07:24:12;97867.91;;;3.81;91.42
55990;BME280;41875;55.806;38.082;2024-03-23T07:27:14;97870.41;;;3.91;92.09
55990;BME280;41875;55.806;38.082;2024-03-23T07:30:18;97876.72;;;4.15;91.38
55990;BME280;41875;55.806;38.082;2024-03-23T07:33:21;97866.06;;;4.16;90.22
55990;BME280;41875;55.806;38.082;2024-03-23T07:36:22;97865.66;;;4.37;89.74
55990;BME280;41875;55.806;38.082;2024-03-23T07:39:25;97872.53;;;4.38;88.63
55990;BME280;41875;55.806;38.082;2024-03-23T07:42:29;97862.38;;;4.43;89.52
55990;BME280;41875;55.806;38.082;2024-03-23T07:45:32;97858.91;;;3.84;92.58
55990;BME280;41875;55.806;38.082;2024-03-23T07:48:35;97859.16;;;4.07;91.28
55990;BME280;41875;55.806;38.082;2024-03-23T07:51:38;97865.06;;;4.17;91.00
55990;BME280;41875;55.806;38.082;2024-03-23T07:54:41;97861.72;;;4.41;89.56
55990;BME280;41875;55.806;38.082;2024-03-23T07:57:43;97850.41;;;4.49;89.77
55990;BME280;41875;55.806;38.082;2024-03-23T08:00:48;97854.47;;;4.27;90.56
55990;BME280;41875;55.806;38.082;2024-03-23T08:03:50;97857.31;;;3.99;92.19
55990;BME280;41875;55.806;38.082;2024-03-23T08:06:53;97859.09;;;4.41;90.64
55990;BME280;41875;55.806;38.082;2024-03-23T08:09:55;97843.06;;;4.53;89.59
55990;BME280;41875;55.806;38.082;2024-03-23T08:12:57;97842.72;;;4.48;89.57
55990;BME280;41875;55.806;38.082;2024-03-23T08:16:05;97847.94;;;4.39;91.91
55990;BME280;41875;55.806;38.082;2024-03-23T08:19:08;97845.50;;;4.63;89.29
55990;BME280;41875;55.806;38.082;2024-03-23T08:22:12;97838.47;;;4.63;89.99
55990;BME280;41875;55.806;38.082;2024-03-23T08:25:17;97837.63;;;4.30;91.29
55990;BME280;41875;55.806;38.082;2024-03-23T08:28:19;97835.53;;;4.50;90.92
55990;BME280;41875;55.806;38.082;2024-03-23T08:31:24;97821.25;;;4.44;90.93
55990;BME280;41875;55.806;38.082;2024-03-23T08:34:29;97820.28;;;4.62;90.59
55990;BME280;41875;55.806;38.082;2024-03-23T08:37:31;97816.03;;;4.61;90.73
55990;BME280;41875;55.806;38.082;2024-03-23T08:40:34;97824.34;;;4.39;91.48
55990;BME280;41875;55.806;38.082;2024-03-23T08:43:38;97814.72;;;4.65;91.31
55990;BME280;41875;55.806;38.082;2024-03-23T08:46:43;97807.13;;;4.29;92.58
55990;BME280;41875;55.806;38.082;2024-03-23T08:49:44;97806.34;;;4.69;90.62
55990;BME280;41875;55.806;38.082;2024-03-23T08:52:48;97805.72;;;4.67;90.58
55990;BME280;41875;55.806;38.082;2024-03-23T08:55:53;97798.97;;;4.56;91.46
55990;BME280;41875;55.806;38.082;2024-03-23T08:58:55;97812.91;;;4.57;91.93
55990;BME280;41875;55.806;38.082;2024-03-23T09:01:59;97798.50;;;4.78;89.34
55990;BME280;41875;55.806;38.082;2024-03-23T09:05:00;97803.56;;;4.54;91.93
55990;BME280;41875;55.806;38.082;2024-03-23T09:08:09;97789.97;;;4.76;90.94
55990;BME280;41875;55.806;38.082;2024-03-23T09:11:12;97793.06;;;4.96;89.50
55990;BME280;41875;55.806;38.082;2024-03-23T09:14:15;97796.69;;;4.70;90.24
55990;BME280;41875;55.806;38.082;2024-03-23T09:17:19;97794.88;;;5.12;88.53
55990;BME280;41875;55.806;38.082;2024-03-23T09:20:21;97781.56;;;5.13;88.37
55990;BME280;41875;55.806;38.082;2024-03-23T09:23:27;97783.16;;;5.23;88.49
55990;BME280;41875;55.806;38.082;2024-03-23T09:26:29;97784.19;;;5.13;89.02
55990;BME280;41875;55.806;38.082;2024-03-23T09:29:32;97774.66;;;5.12;88.83
55990;BME280;41875;55.806;38.082;2024-03-23T09:32:35;97775.97;;;5.16;89.59
55990;BME280;41875;55.806;38.082;2024-03-23T09:35:38;97768.25;;;5.15;89.03
55990;BME280;41875;55.806;38.082;2024-03-23T09:38:40;97763.72;;;4.92;90.53
55990;BME280;41875;55.806;38.082;2024-03-23T09:41:43;97766.16;;;4.94;90.00
55990;BME280;41875;55.806;38.082;2024-03-23T09:44:50;97765.44;;;5.33;89.02
55990;BME280;41875;55.806;38.082;2024-03-23T09:47:54;97757.19;;;5.44;87.95
55990;BME280;41875;55.806;38.082;2024-03-23T09:50:57;97765.16;;;5.19;88.95
55990;BME280;41875;55.806;38.082;2024-03-23T09:54:00;97761.41;;;5.14;90.13
55990;BME280;41875;55.806;38.082;2024-03-23T09:57:05;97760.56;;;5.13;88.82
55990;BME280;41875;55.806;38.082;2024-03-23T10:00:09;97752.47;;;5.31;88.25
55990;BME280;41875;55.806;38.082;2024-03-23T10:03:12;97757.66;;;5.48;87.79
55990;BME280;41875;55.806;38.082;2024-03-23T10:06:24;97754.59;;;5.36;87.92
55990;BME280;41875;55.806;38.082;2024-03-23T10:09:26;97759.72;;;5.29;88.60
55990;BME280;41875;55.806;38.082;2024-03-23T10:12:44;97743.78;;;5.23;89.47
55990;BME280;41875;55.806;38.082;2024-03-23T10:15:45;97748.41;;;5.12;90.05
55990;BME280;41875;55.806;38.082;2024-03-23T10:18:55;97739.22;;;5.16;89.99
55990;BME280;41875;55.806;38.082;2024-03-23T10:21:58;97739.66;;;5.37;88.97
55990;BME280;41875;55.806;38.082;2024-03-23T10:25:07;97730.41;;;5.01;90.56
55990;BME280;41875;55.806;38.082;2024-03-23T10:28:13;97736.75;;;5.23;89.40
55990;BME280;41875;55.806;38.082;2024-03-23T10:31:16;97742.19;;;5.13;89.83
55990;BME280;41875;55.806;38.082;2024-03-23T10:34:25;97734.81;;;5.57;88.40
55990;BME280;41875;55.806;38.082;2024-03-23T10:37:27;97744.28;;;5.26;89.16
55990;BME280;41875;55.806;38.082;2024-03-23T10:40:31;97732.66;;;5.60;87.51
55990;BME280;41875;55.806;38.082;2024-03-23T10:43:34;97731.31;;;5.73;87.05
55990;BME280;41875;55.806;38.082;2024-03-23T10:46:43;97731.91;;;5.52;88.02
55990;BME280;41875;55.806;38.082;2024-03-23T10:49:48;97737.56;;;5.72;86.63
55990;BME280;41875;55.806;38.082;2024-03-23T10:52:52;97734.94;;;5.24;89.08
55990;BME280;41875;55.806;38.082;2024-03-23T10:55:57;97740.06;;;5.57;88.87
55990;BME280;41875;55.806;38.082;2024-03-23T10:59:02;97730.53;;;5.64;88.02
55990;BME280;41875;55.806;38.082;2024-03-23T11:02:06;97734.81;;;5.57;88.34
55990;BME280;41875;55.806;38.082;2024-03-23T11:05:30;97726.09;;;5.64;87.86
55990;BME280;41875;55.806;38.082;2024-03-23T11:08:34;97719.50;;;6.00;86.17
55990;BME280;41875;55.806;38.082;2024-03-23T11:11:37;97716.88;;;6.00;86.62
55990;BME280;41875;55.806;38.082;2024-03-23T11:14:40;97726.28;;;5.55;87.48
55990;BME280;41875;55.806;38.082;2024-03-23T11:17:44;97723.25;;;5.34;89.74
55990;BME280;41875;55.806;38.082;2024-03-23T11:21:08;97717.72;;;5.29;89.82
55990;BME280;41875;55.806;38.082;2024-03-23T11:24:14;97714.38;;;5.36;90.58
55990;BME280;41875;55.806;38.082;2024-03-23T11:27:16;97714.66;;;5.49;89.43
55990;BME280;41875;55.806;38.082;2024-03-23T11:30:20;97705.00;;;5.49;89.67
55990;BME280;41875;55.806;38.082;2024-03-23T11:33:40;97710.78;;;5.37;90.21
55990;BME280;41875;55.806;38.082;2024-03-23T11:37:15;97695.59;;;5.55;88.69
55990;BME280;41875;55.806;38.082;2024-03-23T11:41:08;97702.56;;;5.40;89.77
55990;BME280;41875;55.806;38.082;2024-03-23T11:44:15;97708.47;;;5.42;90.28
55990;BME280;41875;55.806;38.082;2024-03-23T11:47:17;97693.09;;;5.62;89.07
55990;BME280;41875;55.806;38.082;2024-03-23T11:50:20;97686.81;;;5.40;89.74
55990;BME280;41875;55.806;38.082;2024-03-23T11:53:24;97697.16;;;5.73;88.34
55990;BME280;41875;55.806;38.082;2024-03-23T11:56:28;97694.50;;;5.41;89.81
55990;BME280;41875;55.806;38.082;2024-03-23T11:59:32;97695.13;;;5.52;89.33
55990;BME280;41875;55.806;38.082;2024-03-23T12:02:35;97693.47;;;5.82;88.09
55990;BME280;41875;55.806;38.082;2024-03-23T12:05:37;97690.16;;;5.25;90.94
55990;BME280;41875;55.806;38.082;2024-03-23T12:08:42;97691.25;;;5.71;89.17
55990;BME280;41875;55.806;38.082;2024-03-23T12:11:44;97698.22;;;5.55;89.31
55990;BME280;41875;55.806;38.082;2024-03-23T12:15:04;97682.72;;;5.69;89.61
55990;BME280;41875;55.806;38.082;2024-03-23T12:18:07;97691.53;;;5.44;91.08
55990;BME280;41875;55.806;38.082;2024-03-23T12:21:12;97691.53;;;5.44;90.34
55990;BME280;41875;55.806;38.082;2024-03-23T12:24:16;97687.81;;;5.30;92.75
55990;BME280;41875;55.806;38.082;2024-03-23T12:27:18;97692.66;;;5.50;91.30
55990;BME280;41875;55.806;38.082;2024-03-23T12:30:20;97683.97;;;5.49;92.47
55990;BME280;41875;55.806;38.082;2024-03-23T12:33:22;97684.13;;;5.48;92.96
55990;BME280;41875;55.806;38.082;2024-03-23T12:36:25;97690.41;;;4.99;95.48
55990;BME280;41875;55.806;38.082;2024-03-23T12:39:28;97686.94;;;5.46;94.71
55990;BME280;41875;55.806;38.082;2024-03-23T12:42:31;97688.13;;;5.36;94.94
55990;BME280;41875;55.806;38.082;2024-03-23T12:45:33;97685.38;;;5.29;94.61
55990;BME280;41875;55.806;38.082;2024-03-23T12:48:36;97687.91;;;5.14;95.96
55990;BME280;41875;55.806;38.082;2024-03-23T12:51:37;97687.69;;;5.24;95.76
55990;BME280;41875;55.806;38.082;2024-03-23T12:54:42;97695.06;;;5.28;96.13
55990;BME280;41875;55.806;38.082;2024-03-23T12:57:47;97691.66;;;5.11;96.72
55990;BME280;41875;55.806;38.082;2024-03-23T13:00:50;97684.75;;;5.18;96.78
55990;BME280;41875;55.806;38.082;2024-03-23T13:03:55;97684.91;;;5.17;97.40
55990;BME280;41875;55.806;38.082;2024-03-23T13:07:00;97681.34;;;5.10;97.55
55990;BME280;41875;55.806;38.082;2024-03-23T13:10:04;97674.84;;;4.89;97.91
55990;BME280;41875;55.806;38.082;2024-03-23T13:13:07;97669.44;;;5.30;96.26
55990;BME280;41875;55.806;38.082;2024-03-23T13:16:10;97669.31;;;5.24;96.43
55990;BME280;41875;55.806;38.082;2024-03-23T13:19:12;97671.72;;;5.33;95.50
55990;BME280;41875;55.806;38.082;2024-03-23T13:22:15;97665.81;;;5.40;96.02
55990;BME280;41875;55.806;38.082;2024-03-23T13:25:20;97664.91;;;5.16;97.10
55990;BME280;41875;55.806;38.082;2024-03-23T13:28:24;97663.44;;;5.22;96.66
55990;BME280;41875;55.806;38.082;2024-03-23T13:31:27;97666.72;;;5.15;97.44
55990;BME280;41875;55.806;38.082;2024-03-23T13:34:32;97664.16;;;4.99;98.36
55990;BME280;41875;55.806;38.082;2024-03-23T13:37:36;97660.75;;;5.30;96.81
55990;BME280;41875;55.806;38.082;2024-03-23T13:40:39;97660.16;;;5.11;97.08
55990;BME280;41875;55.806;38.082;2024-03-23T13:43:51;97659.06;;;5.37;96.49
55990;BME280;41875;55.806;38.082;2024-03-23T13:46:55;97661.66;;;5.06;97.53
55990;BME280;41875;55.806;38.082;2024-03-23T13:49:59;97664.25;;;5.54;95.37
55990;BME280;41875;55.806;38.082;2024-03-23T13:53:00;97666.44;;;5.02;97.77
55990;BME280;41875;55.806;38.082;2024-03-23T13:56:09;97666.25;;;5.12;97.55
55990;BME280;41875;55.806;38.082;2024-03-23T13:59:10;97664.44;;;5.12;97.83
55990;BME280;41875;55.806;38.082;2024-03-23T14:02:15;97657.94;;;5.31;96.86
55990;BME280;41875;55.806;38.082;2024-03-23T14:05:18;97649.47;;;5.53;95.12
55990;BME280;41875;55.806;38.082;2024-03-23T14:08:19;97654.13;;;5.42;96.28
55990;BME280;41875;55.806;38.082;2024-03-23T14:11:25;97653.41;;;5.25;96.39
55990;BME280;41875;55.806;38.082;2024-03-23T14:14:27;97651.69;;;5.41;95.50
55990;BME280;41875;55.806;38.082;2024-03-23T14:17:31;97660.25;;;5.34;95.84
55990;BME280;41875;55.806;38.082;2024-03-23T14:20:35;97645.91;;;5.45;95.36
55990;BME280;41875;55.806;38.082;2024-03-23T14:23:39;97654.06;;;5.19;96.72
55990;BME280;41875;55.806;38.082;2024-03-23T14:26:45;97643.16;;;5.39;95.43
55990;BME280;41875;55.806;38.082;2024-03-23T14:29:48;97646.47;;;5.32;95.74
55990;BME280;41875;55.806;38.082;2024-03-23T14:32:52;97655.31;;;5.40;95.09
55990;BME280;41875;55.806;38.082;2024-03-23T14:35:54;97653.31;;;5.42;94.99
55990;BME280;41875;55.806;38.082;2024-03-23T14:38:58;97654.47;;;5.39;94.45
55990;BME280;41875;55.806;38.082;2024-03-23T14:42:04;97655.88;;;5.18;96.53
55990;BME280;41875;55.806;38.082;2024-03-23T14:45:08;97644.22;;;5.21;95.21
55990;BME280;41875;55.806;38.082;2024-03-23T14:48:15;97648.56;;;5.69;93.55
55990;BME280;41875;55.806;38.082;2024-03-23T14:51:18;97646.22;;;5.51;94.22
55990;BME280;41875;55.806;38.082;2024-03-23T14:54:19;97638.47;;;5.57;93.41
55990;BME280;41875;55.806;38.082;2024-03-23T14:57:24;97631.47;;;5.49;93.97
55990;BME280;41875;55.806;38.082;2024-03-23T15:00:25;97639.84;;;5.68;92.57
55990;BME280;41875;55.806;38.082;2024-03-23T15:03:28;97643.00;;;5.63;93.10
55990;BME280;41875;55.806;38.082;2024-03-23T15:06:30;97637.94;;;5.62;93.43
55990;BME280;41875;55.806;38.082;2024-03-23T15:09:34;97641.94;;;5.18;96.07
55990;BME280;41875;55.806;38.082;2024-03-23T15:12:39;97639.66;;;5.46;95.26
55990;BME280;41875;55.806;38.082;2024-03-23T15:15:42;97648.00;;;5.18;96.94
55990;BME280;41875;55.806;38.082;2024-03-23T15:18:46;97650.13;;;5.15;96.98
55990;BME280;41875;55.806;38.082;2024-03-23T15:21:51;97646.91;;;5.04;98.41
55990;BME280;41875;55.806;38.082;2024-03-23T15:24:54;97641.31;;;5.08;98.43
55990;BME280;41875;55.806;38.082;2024-03-23T15:27:59;97644.59;;;5.10;98.23
55990;BME280;41875;55.806;38.082;2024-03-23T15:31:01;97651.34;;;5.04;98.13
55990;BME280;41875;55.806;38.082;2024-03-23T15:34:04;97650.97;;;5.15;98.45
55990;BME280;41875;55.806;38.082;2024-03-23T15:37:06;97654.97;;;5.03;98.66
55990;BME280;41875;55.806;38.082;2024-03-23T15:40:10;97653.25;;;5.18;97.76
55990;BME280;41875;55.806;38.082;2024-03-23T15:43:15;97659.63;;;5.24;97.90
55990;BME280;41875;55.806;38.082;2024-03-23T15:46:18;97658.59;;;5.33;97.42
55990;BME280;41875;55.806;38.082;2024-03-23T15:49:23;97659.03;;;5.45;96.57
55990;BME280;41875;55.806;38.082;2024-03-23T15:52:28;97653.72;;;5.22;97.14
55990;BME280;41875;55.806;38.082;2024-03-23T15:55:31;97656.22;;;5.15;97.31
55990;BME280;41875;55.806;38.082;2024-03-23T15:58:39;97665.72;;;5.56;95.81
55990;BME280;41875;55.806;38.082;2024-03-23T16:01:44;97670.34;;;5.46;96.12
55990;BME280;41875;55.806;38.082;2024-03-23T16:04:53;97674.66;;;5.39;96.26
55990;BME280;41875;55.806;38.082;2024-03-23T16:07:55;97674.34;;;5.42;96.53
55990;BME280;41875;55.806;38.082;2024-03-23T16:11:00;97674.06;;;5.28;96.73
55990;BME280;41875;55.806;38.082;2024-03-23T16:14:04;97678.81;;;5.33;96.44
55990;BME280;41875;55.806;38.082;2024-03-23T16:17:07;97682.06;;;5.35;96.99
55990;BME280;41875;55.806;38.082;2024-03-23T16:20:14;97683.66;;;5.44;95.93
55990;BME280;41875;55.806;38.082;2024-03-23T16:23:20;97682.88;;;5.44;95.54
55990;BME280;41875;55.806;38.082;2024-03-23T16:26:24;97692.25;;;5.30;96.07
55990;BME280;41875;55.806;38.082;2024-03-23T16:29:29;97688.00;;;5.29;96.10
55990;BME280;41875;55.806;38.082;2024-03-23T16:32:33;97685.25;;;5.54;95.17
55990;BME280;41875;55.806;38.082;2024-03-23T16:35:39;97696.66;;;5.38;96.55
55990;BME280;41875;55.806;38.082;2024-03-23T16:38:42;97697.84;;;5.35;96.15
55990;BME280;41875;55.806;38.082;2024-03-23T16:41:48;97692.34;;;5.45;96.42
55990;BME280;41875;55.806;38.082;2024-03-23T16:44:54;97689.94;;;5.35;97.15
55990;BME280;41875;55.806;38.082;2024-03-23T16:48:02;97701.06;;;5.37;96.34
55990;BME280;41875;55.806;38.082;2024-03-23T16:51:07;97704.34;;;5.39;96.02
55990;BME280;41875;55.806;38.082;2024-03-23T16:54:12;97712.50;;;5.53;96.27
55990;BME280;41875;55.806;38.082;2024-03-23T16:57:17;97706.72;;;5.65;95.25
55990;BME280;41875;55.806;38.082;2024-03-23T17:00:22;97705.53;;;5.37;96.10
55990;BME280;41875;55.806;38.082;2024-03-23T17:03:27;97710.25;;;5.41;95.74
55990;BME280;41875;55.806;38.082;2024-03-23T17:06:31;97709.53;;;5.56;94.13
55990;BME280;41875;55.806;38.082;2024-03-23T17:09:47;97715.72;;;5.31;95.69